sensor_id;sensor_type;location;lat;lon;timestamp;temperature;humidity
44223;DHT22;29895;48.804;9.386;2023-04-06T00:01:38;-0.10;99.90
44223;DHT22;29895;48.804;9.386;2023-04-06T00:04:04;0.00;99.90
44223;DHT22;29895;48.804;9.386;2023-04-06T00:06:30;0.00;99.90
44223;DHT22;29895;48.804;9.386;2023-04-06T00:08:57;0.00;99.90
44223;DHT22;29895;48.804;9.386;2023-04-06T00:11:23;0.00;99.90
44223;DHT22;29895;48.804;9.386;2023-04-06T00:13:49;0.00;99.90
44223;DHT22;29895;48.804;9.386;2023-04-06T00:16:15;0.00;99.90
44223;DHT22;29895;48.804;9.386;2023-04-06T00:18:41;-0.10;99.90
44223;DHT22;29895;48.804;9.386;2023-04-06T00:21:07;-0.20;99.90
44223;DHT22;29895;48.804;9.386;2023-04-06T00:23:32;-0.20;99.90
44223;DHT22;29895;48.804;9.386;2023-04-06T00:25:58;-0.20;99.90
44223;DHT22;29895;48.804;9.386;2023-04-06T00:28:24;-0.30;99.90
44223;DHT22;29895;48.804;9.386;2023-04-06T00:30:54;-0.30;99.90
44223;DHT22;29895;48.804;9.386;2023-04-06T00:33:21;-0.40;99.90
44223;DHT22;29895;48.804;9.386;2023-04-06T00:35:47;-0.40;99.90
44223;DHT22;29895;48.804;9.386;2023-04-06T00:38:14;-0.40;99.90
44223;DHT22;29895;48.804;9.386;2023-04-06T00:40:40;-0.40;99.90
44223;DHT22;29895;48.804;9.386;2023-04-06T00:43:06;-0.50;99.90
44223;DHT22;29895;48.804;9.386;2023-04-06T00:45:32;-0.50;99.90
44223;DHT22;29895;48.804;9.386;2023-04-06T00:47:58;-0.40;99.90
44223;DHT22;29895;48.804;9.386;2023-04-06T00:50:25;-0.50;99.90
44223;DHT22;29895;48.804;9.386;2023-04-06T00:52:50;-0.50;99.90
44223;DHT22;29895;48.804;9.386;2023-04-06T00:55:17;-0.60;99.90
44223;DHT22;29895;48.804;9.386;2023-04-06T00:57:43;-0.60;99.90
44223;DHT22;29895;48.804;9.386;2023-04-06T01:00:09;-0.60;99.90
44223;DHT22;29895;48.804;9.386;2023-04-06T01:02:35;-0.70;99.90
44223;DHT22;29895;48.804;9.386;2023-04-06T01:05:01;-0.70;99.90
44223;DHT22;29895;48.804;9.386;2023-04-06T01:07:27;-0.70;99.90
44223;DHT22;29895;48.804;9.386;2023-04-06T01:09:56;-0.70;99.90
44223;DHT22;29895;48.804;9.386;2023-04-06T01:12:22;-0.70;99.90
44223;DHT22;29895;48.804;9.386;2023-04-06T01:14:48;-0.70;99.90
44223;DHT22;29895;48.804;9.386;2023-04-06T01:17:14;-0.80;99.90
44223;DHT22;29895;48.804;9.386;2023-04-06T01:19:40;-0.80;99.90
44223;DHT22;29895;48.804;9.386;2023-04-06T01:22:06;-0.90;99.90
44223;DHT22;29895;48.804;9.386;2023-04-06T01:24:32;-1.00;99.90
44223;DHT22;29895;48.804;9.386;2023-04-06T01:26:58;-1.00;99.90
44223;DHT22;29895;48.804;9.386;2023-04-06T01:29:24;-0.90;99.90
44223;DHT22;29895;48.804;9.386;2023-04-06T01:31:50;-0.80;99.90
44223;DHT22;29895;48.804;9.386;2023-04-06T01:34:16;-0.70;99.90
44223;DHT22;29895;48.804;9.386;2023-04-06T01:36:41;-0.60;99.90
44223;DHT22;29895;48.804;9.386;2023-04-06T01:39:07;-0.70;99.90
44223;DHT22;29895;48.804;9.386;2023-04-06T01:41:33;-0.70;99.90
44223;DHT22;29895;48.804;9.386;2023-04-06T01:43:59;-0.70;99.90
44223;DHT22;29895;48.804;9.386;2023-04-06T01:46:25;-0.70;99.90
44223;DHT22;29895;48.804;9.386;2023-04-06T01:48:51;-0.80;99.90
44223;DHT22;29895;48.804;9.386;2023-04-06T01:51:17;-0.90;99.90
44223;DHT22;29895;48.804;9.386;2023-04-06T01:53:43;-1.00;99.90
44223;DHT22;29895;48.804;9.386;2023-04-06T01:56:09;-1.00;99.90
44223;DHT22;29895;48.804;9.386;2023-04-06T01:58:34;-1.10;99.90
44223;DHT22;29895;48.804;9.386;2023-04-06T02:01:00;-1.20;99.90
44223;DHT22;29895;48.804;9.386;2023-04-06T02:03:26;-1.20;99.90
44223;DHT22;29895;48.804;9.386;2023-04-06T02:05:52;-1.10;99.90
44223;DHT22;29895;48.804;9.386;2023-04-06T02:08:17;-1.00;99.90
44223;DHT22;29895;48.804;9.386;2023-04-06T02:10:43;-0.90;99.90
44223;DHT22;29895;48.804;9.386;2023-04-06T02:13:09;-0.80;99.90
44223;DHT22;29895;48.804;9.386;2023-04-06T02:15:34;-0.80;99.90
44223;DHT22;29895;48.804;9.386;2023-04-06T02:18:01;-0.90;99.90
44223;DHT22;29895;48.804;9.386;2023-04-06T02:20:27;-0.90;99.90
44223;DHT22;29895;48.804;9.386;2023-04-06T02:22:52;-0.90;99.90
44223;DHT22;29895;48.804;9.386;2023-04-06T02:25:18;-0.90;99.90
44223;DHT22;29895;48.804;9.386;2023-04-06T02:27:44;-1.00;99.90
44223;DHT22;29895;48.804;9.386;2023-04-06T02:30:10;-1.10;99.90
44223;DHT22;29895;48.804;9.386;2023-04-06T02:32:36;-1.00;99.90
44223;DHT22;29895;48.804;9.386;2023-04-06T02:35:02;-1.10;99.90
44223;DHT22;29895;48.804;9.386;2023-04-06T02:37:28;-1.00;99.90
44223;DHT22;29895;48.804;9.386;2023-04-06T02:39:53;-1.00;99.90
44223;DHT22;29895;48.804;9.386;2023-04-06T02:42:19;-1.10;99.90
44223;DHT22;29895;48.804;9.386;2023-04-06T02:44:45;-1.10;99.90
44223;DHT22;29895;48.804;9.386;2023-04-06T02:47:11;-1.20;99.90
44223;DHT22;29895;48.804;9.386;2023-04-06T02:49:37;-1.30;99.90
44223;DHT22;29895;48.804;9.386;2023-04-06T02:52:03;-1.30;99.90
44223;DHT22;29895;48.804;9.386;2023-04-06T02:54:28;-1.40;99.90
44223;DHT22;29895;48.804;9.386;2023-04-06T02:56:54;-1.30;99.90
44223;DHT22;29895;48.804;9.386;2023-04-06T02:59:20;-1.30;99.90
44223;DHT22;29895;48.804;9.386;2023-04-06T03:01:46;-1.30;99.90
44223;DHT22;29895;48.804;9.386;2023-04-06T03:04:12;-1.40;99.90
44223;DHT22;29895;48.804;9.386;2023-04-06T03:06:37;-1.40;99.90
44223;DHT22;29895;48.804;9.386;2023-04-06T03:09:03;-1.40;99.90
44223;DHT22;29895;48.804;9.386;2023-04-06T03:11:29;-1.40;99.90
44223;DHT22;29895;48.804;9.386;2023-04-06T03:13:55;-1.40;99.90
44223;DHT22;29895;48.804;9.386;2023-04-06T03:16:20;-1.50;99.90
44223;DHT22;29895;48.804;9.386;2023-04-06T03:18:46;-1.40;99.90
44223;DHT22;29895;48.804;9.386;2023-04-06T03:21:13;-1.40;99.90
44223;DHT22;29895;48.804;9.386;2023-04-06T03:23:41;-1.30;99.90
44223;DHT22;29895;48.804;9.386;2023-04-06T03:26:06;-1.30;99.90
44223;DHT22;29895;48.804;9.386;2023-04-06T03:28:32;-1.30;99.90
44223;DHT22;29895;48.804;9.386;2023-04-06T03:30:58;-1.40;99.90
44223;DHT22;29895;48.804;9.386;2023-04-06T03:33:24;-1.40;99.90
44223;DHT22;29895;48.804;9.386;2023-04-06T03:35:52;-1.40;99.90
44223;DHT22;29895;48.804;9.386;2023-04-06T03:38:18;-1.50;99.90
44223;DHT22;29895;48.804;9.386;2023-04-06T03:40:44;-1.50;99.90
44223;DHT22;29895;48.804;9.386;2023-04-06T03:43:10;-1.50;99.90
44223;DHT22;29895;48.804;9.386;2023-04-06T03:45:36;-1.50;99.90
44223;DHT22;29895;48.804;9.386;2023-04-06T03:48:02;-1.50;99.90
44223;DHT22;29895;48.804;9.386;2023-04-06T03:50:28;-1.50;99.90
44223;DHT22;29895;48.804;9.386;2023-04-06T03:52:53;-1.40;99.90
44223;DHT22;29895;48.804;9.386;2023-04-06T03:55:19;-1.40;99.90
44223;DHT22;29895;48.804;9.386;2023-04-06T03:57:45;-1.40;99.90
44223;DHT22;29895;48.804;9.386;2023-04-06T04:00:11;-1.40;99.90
44223;DHT22;29895;48.804;9.386;2023-04-06T04:02:37;-1.40;99.90
44223;DHT22;29895;48.804;9.386;2023-04-06T04:05:03;-1.50;99.90
44223;DHT22;29895;48.804;9.386;2023-04-06T04:07:29;-1.50;99.90
44223;DHT22;29895;48.804;9.386;2023-04-06T04:09:55;-1.40;99.90
44223;DHT22;29895;48.804;9.386;2023-04-06T04:12:20;-1.40;99.90
44223;DHT22;29895;48.804;9.386;2023-04-06T04:14:46;-1.30;99.90
44223;DHT22;29895;48.804;9.386;2023-04-06T04:17:12;-1.40;99.90
44223;DHT22;29895;48.804;9.386;2023-04-06T04:19:37;-1.40;99.90
44223;DHT22;29895;48.804;9.386;2023-04-06T04:22:03;-1.50;99.90
44223;DHT22;29895;48.804;9.386;2023-04-06T04:24:30;-1.50;99.90
44223;DHT22;29895;48.804;9.386;2023-04-06T04:26:56;-1.50;99.90
44223;DHT22;29895;48.804;9.386;2023-04-06T04:29:22;-1.50;99.90
44223;DHT22;29895;48.804;9.386;2023-04-06T04:31:49;-1.60;99.90
44223;DHT22;29895;48.804;9.386;2023-04-06T04:34:15;-1.70;99.90
44223;DHT22;29895;48.804;9.386;2023-04-06T04:36:41;-1.70;99.90
44223;DHT22;29895;48.804;9.386;2023-04-06T04:39:09;-1.70;99.90
44223;DHT22;29895;48.804;9.386;2023-04-06T04:41:35;-1.70;99.90
44223;DHT22;29895;48.804;9.386;2023-04-06T04:44:01;-1.80;99.90
44223;DHT22;29895;48.804;9.386;2023-04-06T04:46:26;-1.80;99.90
44223;DHT22;29895;48.804;9.386;2023-04-06T04:48:52;-1.70;99.90
44223;DHT22;29895;48.804;9.386;2023-04-06T04:51:18;-1.70;99.90
44223;DHT22;29895;48.804;9.386;2023-04-06T04:53:45;-1.70;99.90
44223;DHT22;29895;48.804;9.386;2023-04-06T04:56:11;-1.70;99.90
44223;DHT22;29895;48.804;9.386;2023-04-06T04:58:36;-1.60;99.90
44223;DHT22;29895;48.804;9.386;2023-04-06T05:01:02;-1.60;99.90
44223;DHT22;29895;48.804;9.386;2023-04-06T05:03:28;-1.40;99.90
44223;DHT22;29895;48.804;9.386;2023-04-06T05:05:54;-1.40;99.90
44223;DHT22;29895;48.804;9.386;2023-04-06T05:08:20;-1.40;99.90
44223;DHT22;29895;48.804;9.386;2023-04-06T05:10:46;-1.50;99.90
44223;DHT22;29895;48.804;9.386;2023-04-06T05:13:13;-1.40;99.90
44223;DHT22;29895;48.804;9.386;2023-04-06T05:15:40;-1.40;99.90
44223;DHT22;29895;48.804;9.386;2023-04-06T05:18:07;-1.30;99.90
44223;DHT22;29895;48.804;9.386;2023-04-06T05:20:33;-1.20;99.90
44223;DHT22;29895;48.804;9.386;2023-04-06T05:22:59;-1.10;99.90
44223;DHT22;29895;48.804;9.386;2023-04-06T05:25:25;-1.00;99.90
44223;DHT22;29895;48.804;9.386;2023-04-06T05:27:50;-1.00;99.90
44223;DHT22;29895;48.804;9.386;2023-04-06T05:30:16;-0.80;99.90
44223;DHT22;29895;48.804;9.386;2023-04-06T05:32:42;-0.50;99.90
44223;DHT22;29895;48.804;9.386;2023-04-06T05:35:09;-0.30;99.90
44223;DHT22;29895;48.804;9.386;2023-04-06T05:37:35;0.00;99.90
44223;DHT22;29895;48.804;9.386;2023-04-06T05:40:01;0.30;99.90
44223;DHT22;29895;48.804;9.386;2023-04-06T05:42:27;0.50;99.90
44223;DHT22;29895;48.804;9.386;2023-04-06T05:44:53;0.80;99.90
44223;DHT22;29895;48.804;9.386;2023-04-06T05:47:19;1.00;99.90
44223;DHT22;29895;48.804;9.386;2023-04-06T05:49:45;1.20;99.90
44223;DHT22;29895;48.804;9.386;2023-04-06T05:52:10;1.40;99.90
44223;DHT22;29895;48.804;9.386;2023-04-06T05:54:36;1.70;99.90
44223;DHT22;29895;48.804;9.386;2023-04-06T05:57:03;1.80;99.90
44223;DHT22;29895;48.804;9.386;2023-04-06T05:59:32;1.90;99.90
44223;DHT22;29895;48.804;9.386;2023-04-06T06:01:57;2.10;99.90
44223;DHT22;29895;48.804;9.386;2023-04-06T06:04:23;2.40;99.90
44223;DHT22;29895;48.804;9.386;2023-04-06T06:06:49;2.50;99.90
44223;DHT22;29895;48.804;9.386;2023-04-06T06:09:15;2.80;99.90
44223;DHT22;29895;48.804;9.386;2023-04-06T06:11:41;3.00;99.90
44223;DHT22;29895;48.804;9.386;2023-04-06T06:14:07;3.00;99.90
44223;DHT22;29895;48.804;9.386;2023-04-06T06:16:33;3.00;99.90
44223;DHT22;29895;48.804;9.386;2023-04-06T06:18:59;3.10;99.90
44223;DHT22;29895;48.804;9.386;2023-04-06T06:21:25;3.30;99.90
44223;DHT22;29895;48.804;9.386;2023-04-06T06:23:51;3.50;99.90
44223;DHT22;29895;48.804;9.386;2023-04-06T06:26:17;3.70;99.90
44223;DHT22;29895;48.804;9.386;2023-04-06T06:28:42;3.80;99.90
44223;DHT22;29895;48.804;9.386;2023-04-06T06:31:08;3.90;99.90
44223;DHT22;29895;48.804;9.386;2023-04-06T06:33:34;4.10;99.90
44223;DHT22;29895;48.804;9.386;2023-04-06T06:35:59;4.50;99.90
44223;DHT22;29895;48.804;9.386;2023-04-06T06:38:25;4.70;99.90
44223;DHT22;29895;48.804;9.386;2023-04-06T06:40:51;5.00;99.90
44223;DHT22;29895;48.804;9.386;2023-04-06T06:43:17;5.00;99.90
44223;DHT22;29895;48.804;9.386;2023-04-06T06:45:43;5.10;99.90
44223;DHT22;29895;48.804;9.386;2023-04-06T06:48:09;5.40;99.90
44223;DHT22;29895;48.804;9.386;2023-04-06T06:50:36;5.70;99.90
44223;DHT22;29895;48.804;9.386;2023-04-06T06:53:02;5.90;99.90
44223;DHT22;29895;48.804;9.386;2023-04-06T06:55:27;6.30;99.90
44223;DHT22;29895;48.804;9.386;2023-04-06T06:57:53;6.80;99.90
44223;DHT22;29895;48.804;9.386;2023-04-06T07:00:19;7.30;99.90
44223;DHT22;29895;48.804;9.386;2023-04-06T07:02:48;7.50;99.60
44223;DHT22;29895;48.804;9.386;2023-04-06T07:05:15;7.70;99.90
44223;DHT22;29895;48.804;9.386;2023-04-06T07:07:41;8.10;99.70
44223;DHT22;29895;48.804;9.386;2023-04-06T07:10:08;8.70;97.60
44223;DHT22;29895;48.804;9.386;2023-04-06T07:12:33;8.80;97.50
44223;DHT22;29895;48.804;9.386;2023-04-06T07:15:00;9.20;97.50
44223;DHT22;29895;48.804;9.386;2023-04-06T07:17:25;9.60;97.10
44223;DHT22;29895;48.804;9.386;2023-04-06T07:19:51;10.00;95.80
44223;DHT22;29895;48.804;9.386;2023-04-06T07:22:17;10.00;94.90
44223;DHT22;29895;48.804;9.386;2023-04-06T07:24:42;9.90;94.70
44223;DHT22;29895;48.804;9.386;2023-04-06T07:27:08;9.90;96.00
44223;DHT22;29895;48.804;9.386;2023-04-06T07:29:34;10.00;95.90
44223;DHT22;29895;48.804;9.386;2023-04-06T07:32:00;10.00;95.10
44223;DHT22;29895;48.804;9.386;2023-04-06T07:34:25;10.10;95.30
44223;DHT22;29895;48.804;9.386;2023-04-06T07:36:51;10.40;95.00
44223;DHT22;29895;48.804;9.386;2023-04-06T07:39:19;10.50;95.20
44223;DHT22;29895;48.804;9.386;2023-04-06T07:41:45;10.60;94.80
44223;DHT22;29895;48.804;9.386;2023-04-06T07:44:11;9.90;93.90
44223;DHT22;29895;48.804;9.386;2023-04-06T07:46:36;9.10;95.10
44223;DHT22;29895;48.804;9.386;2023-04-06T07:49:02;8.70;95.90
44223;DHT22;29895;48.804;9.386;2023-04-06T07:51:28;8.80;96.20
44223;DHT22;29895;48.804;9.386;2023-04-06T07:53:54;8.80;96.20
44223;DHT22;29895;48.804;9.386;2023-04-06T07:56:20;8.50;96.40
44223;DHT22;29895;48.804;9.386;2023-04-06T07:58:46;8.40;97.00
44223;DHT22;29895;48.804;9.386;2023-04-06T08:01:12;8.00;97.20
44223;DHT22;29895;48.804;9.386;2023-04-06T08:03:38;7.90;97.70
44223;DHT22;29895;48.804;9.386;2023-04-06T08:06:04;7.70;97.40
44223;DHT22;29895;48.804;9.386;2023-04-06T08:08:30;7.60;97.60
44223;DHT22;29895;48.804;9.386;2023-04-06T08:10:56;7.70;97.60
44223;DHT22;29895;48.804;9.386;2023-04-06T08:13:22;7.40;98.00
44223;DHT22;29895;48.804;9.386;2023-04-06T08:15:48;7.50;97.80
44223;DHT22;29895;48.804;9.386;2023-04-06T08:18:14;7.40;97.90
44223;DHT22;29895;48.804;9.386;2023-04-06T08:20:40;7.60;97.90
44223;DHT22;29895;48.804;9.386;2023-04-06T08:23:06;7.90;98.10
44223;DHT22;29895;48.804;9.386;2023-04-06T08:25:36;8.10;97.80
44223;DHT22;29895;48.804;9.386;2023-04-06T08:28:03;8.20;97.30
44223;DHT22;29895;48.804;9.386;2023-04-06T08:30:29;8.00;97.00
44223;DHT22;29895;48.804;9.386;2023-04-06T08:32:54;8.10;97.20
44223;DHT22;29895;48.804;9.386;2023-04-06T08:35:20;8.30;97.10
44223;DHT22;29895;48.804;9.386;2023-04-06T08:37:46;8.70;97.10
44223;DHT22;29895;48.804;9.386;2023-04-06T08:40:12;8.90;96.40
44223;DHT22;29895;48.804;9.386;2023-04-06T08:42:45;9.10;96.00
44223;DHT22;29895;48.804;9.386;2023-04-06T08:45:16;9.30;95.80
44223;DHT22;29895;48.804;9.386;2023-04-06T08:47:42;9.50;95.20
44223;DHT22;29895;48.804;9.386;2023-04-06T08:50:09;9.30;94.40
44223;DHT22;29895;48.804;9.386;2023-04-06T08:52:37;9.60;94.70
44223;DHT22;29895;48.804;9.386;2023-04-06T08:55:03;9.70;94.40
44223;DHT22;29895;48.804;9.386;2023-04-06T08:57:31;9.70;94.40
44223;DHT22;29895;48.804;9.386;2023-04-06T08:59:57;9.90;93.90
44223;DHT22;29895;48.804;9.386;2023-04-06T09:02:26;10.00;93.90
44223;DHT22;29895;48.804;9.386;2023-04-06T09:04:53;10.00;93.70
44223;DHT22;29895;48.804;9.386;2023-04-06T09:07:19;9.90;93.60
44223;DHT22;29895;48.804;9.386;2023-04-06T09:09:46;9.90;93.50
44223;DHT22;29895;48.804;9.386;2023-04-06T09:12:28;10.20;93.20
44223;DHT22;29895;48.804;9.386;2023-04-06T09:14:55;10.80;92.60
44223;DHT22;29895;48.804;9.386;2023-04-06T09:17:31;11.20;92.20
44223;DHT22;29895;48.804;9.386;2023-04-06T09:20:03;11.40;92.00
44223;DHT22;29895;48.804;9.386;2023-04-06T09:22:47;11.40;91.60
44223;DHT22;29895;48.804;9.386;2023-04-06T09:25:19;11.70;91.30
44223;DHT22;29895;48.804;9.386;2023-04-06T09:27:46;12.20;90.80
44223;DHT22;29895;48.804;9.386;2023-04-06T09:30:12;12.40;90.60
44223;DHT22;29895;48.804;9.386;2023-04-06T09:32:50;12.40;90.20
44223;DHT22;29895;48.804;9.386;2023-04-06T09:35:17;11.80;90.20
44223;DHT22;29895;48.804;9.386;2023-04-06T09:37:46;11.60;90.40
44223;DHT22;29895;48.804;9.386;2023-04-06T09:40:13;11.70;90.30
44223;DHT22;29895;48.804;9.386;2023-04-06T09:42:42;11.80;90.10
44223;DHT22;29895;48.804;9.386;2023-04-06T09:45:08;12.00;88.70
44223;DHT22;29895;48.804;9.386;2023-04-06T09:47:36;12.00;88.60
44223;DHT22;29895;48.804;9.386;2023-04-06T09:50:03;12.00;88.20
44223;DHT22;29895;48.804;9.386;2023-04-06T09:52:35;11.80;88.20
44223;DHT22;29895;48.804;9.386;2023-04-06T09:55:04;12.00;89.00
44223;DHT22;29895;48.804;9.386;2023-04-06T09:57:52;12.30;88.40
44223;DHT22;29895;48.804;9.386;2023-04-06T10:00:22;12.70;87.50
44223;DHT22;29895;48.804;9.386;2023-04-06T10:05:57;12.50;85.20
44223;DHT22;29895;48.804;9.386;2023-04-06T10:08:27;13.20;84.30
44223;DHT22;29895;48.804;9.386;2023-04-06T10:10:54;13.40;87.90
44223;DHT22;29895;48.804;9.386;2023-04-06T10:13:20;13.30;80.40
44223;DHT22;29895;48.804;9.386;2023-04-06T10:15:46;12.80;82.50
44223;DHT22;29895;48.804;9.386;2023-04-06T10:18:14;12.80;79.20
44223;DHT22;29895;48.804;9.386;2023-04-06T10:20:47;12.70;79.80
44223;DHT22;29895;48.804;9.386;2023-04-06T10:23:32;12.80;79.10
44223;DHT22;29895;48.804;9.386;2023-04-06T10:26:01;12.70;78.60
44223;DHT22;29895;48.804;9.386;2023-04-06T10:28:34;12.40;78.30
44223;DHT22;29895;48.804;9.386;2023-04-06T10:31:04;12.10;80.50
44223;DHT22;29895;48.804;9.386;2023-04-06T10:33:30;11.90;78.60
44223;DHT22;29895;48.804;9.386;2023-04-06T10:35:56;12.10;78.50
44223;DHT22;29895;48.804;9.386;2023-04-06T10:38:42;12.30;79.70
44223;DHT22;29895;48.804;9.386;2023-04-06T10:41:10;12.50;78.60
44223;DHT22;29895;48.804;9.386;2023-04-06T10:43:37;13.00;76.50
44223;DHT22;29895;48.804;9.386;2023-04-06T10:46:05;12.30;77.30
44223;DHT22;29895;48.804;9.386;2023-04-06T10:48:57;12.00;77.50
44223;DHT22;29895;48.804;9.386;2023-04-06T10:51:26;11.90;77.40
44223;DHT22;29895;48.804;9.386;2023-04-06T10:53:53;12.20;79.30
44223;DHT22;29895;48.804;9.386;2023-04-06T10:56:23;12.90;77.90
44223;DHT22;29895;48.804;9.386;2023-04-06T10:58:54;13.00;77.20
44223;DHT22;29895;48.804;9.386;2023-04-06T11:01:24;12.90;76.90
44223;DHT22;29895;48.804;9.386;2023-04-06T11:03:56;12.50;76.80
44223;DHT22;29895;48.804;9.386;2023-04-06T11:06:28;12.20;77.60
44223;DHT22;29895;48.804;9.386;2023-04-06T11:08:56;12.10;77.50
44223;DHT22;29895;48.804;9.386;2023-04-06T11:11:25;11.90;77.00
44223;DHT22;29895;48.804;9.386;2023-04-06T11:13:53;11.80;77.30
44223;DHT22;29895;48.804;9.386;2023-04-06T11:19:00;11.90;76.10
44223;DHT22;29895;48.804;9.386;2023-04-06T11:21:37;11.90;76.40
44223;DHT22;29895;48.804;9.386;2023-04-06T11:24:18;12.00;75.20
44223;DHT22;29895;48.804;9.386;2023-04-06T11:29:17;12.30;73.60
44223;DHT22;29895;48.804;9.386;2023-04-06T11:34:23;12.20;73.60
44223;DHT22;29895;48.804;9.386;2023-04-06T11:36:54;12.30;74.70
44223;DHT22;29895;48.804;9.386;2023-04-06T11:39:23;12.30;73.40
44223;DHT22;29895;48.804;9.386;2023-04-06T11:42:07;12.30;73.70
44223;DHT22;29895;48.804;9.386;2023-04-06T11:44:40;12.40;74.40
44223;DHT22;29895;48.804;9.386;2023-04-06T11:47:10;12.40;74.10
44223;DHT22;29895;48.804;9.386;2023-04-06T11:49:40;12.50;74.80
44223;DHT22;29895;48.804;9.386;2023-04-06T11:52:26;12.80;73.80
44223;DHT22;29895;48.804;9.386;2023-04-06T11:54:53;13.00;73.80
44223;DHT22;29895;48.804;9.386;2023-04-06T11:57:21;13.20;72.90
44223;DHT22;29895;48.804;9.386;2023-04-06T11:59:49;13.20;72.50
44223;DHT22;29895;48.804;9.386;2023-04-06T12:02:15;13.30;72.20
44223;DHT22;29895;48.804;9.386;2023-04-06T12:04:41;13.40;71.60
44223;DHT22;29895;48.804;9.386;2023-04-06T12:07:07;13.80;72.30
44223;DHT22;29895;48.804;9.386;2023-04-06T12:09:32;13.80;70.80
44223;DHT22;29895;48.804;9.386;2023-04-06T12:11:59;13.60;70.90
44223;DHT22;29895;48.804;9.386;2023-04-06T12:14:26;13.60;70.60
44223;DHT22;29895;48.804;9.386;2023-04-06T12:16:51;13.60;70.80
44223;DHT22;29895;48.804;9.386;2023-04-06T12:19:17;13.90;71.50
44223;DHT22;29895;48.804;9.386;2023-04-06T12:21:43;14.30;72.30
44223;DHT22;29895;48.804;9.386;2023-04-06T12:24:09;14.40;69.80
44223;DHT22;29895;48.804;9.386;2023-04-06T12:26:35;14.10;68.70
44223;DHT22;29895;48.804;9.386;2023-04-06T12:29:02;14.30;70.50
44223;DHT22;29895;48.804;9.386;2023-04-06T12:31:37;14.70;69.70
44223;DHT22;29895;48.804;9.386;2023-04-06T12:34:08;15.10;68.90
44223;DHT22;29895;48.804;9.386;2023-04-06T12:36:34;15.40;68.60
44223;DHT22;29895;48.804;9.386;2023-04-06T12:39:00;15.50;68.70
44223;DHT22;29895;48.804;9.386;2023-04-06T12:41:27;15.70;67.80
44223;DHT22;29895;48.804;9.386;2023-04-06T12:43:53;15.60;66.00
44223;DHT22;29895;48.804;9.386;2023-04-06T12:46:19;15.40;65.70
44223;DHT22;29895;48.804;9.386;2023-04-06T12:48:45;15.10;65.50
44223;DHT22;29895;48.804;9.386;2023-04-06T12:51:11;14.70;65.60
44223;DHT22;29895;48.804;9.386;2023-04-06T12:53:37;14.20;65.10
44223;DHT22;29895;48.804;9.386;2023-04-06T12:56:14;13.80;65.20
44223;DHT22;29895;48.804;9.386;2023-04-06T12:58:40;13.70;65.40
44223;DHT22;29895;48.804;9.386;2023-04-06T13:01:08;14.00;65.80
44223;DHT22;29895;48.804;9.386;2023-04-06T13:03:34;13.80;64.90
44223;DHT22;29895;48.804;9.386;2023-04-06T13:06:01;13.60;65.10
44223;DHT22;29895;48.804;9.386;2023-04-06T13:08:27;13.60;65.00
44223;DHT22;29895;48.804;9.386;2023-04-06T13:10:53;13.60;65.10
44223;DHT22;29895;48.804;9.386;2023-04-06T13:13:24;13.40;64.60
44223;DHT22;29895;48.804;9.386;2023-04-06T13:15:51;13.50;65.40
44223;DHT22;29895;48.804;9.386;2023-04-06T13:18:17;13.60;64.40
44223;DHT22;29895;48.804;9.386;2023-04-06T13:20:42;13.60;64.20
44223;DHT22;29895;48.804;9.386;2023-04-06T13:23:08;13.80;62.40
44223;DHT22;29895;48.804;9.386;2023-04-06T13:25:35;14.00;62.70
44223;DHT22;29895;48.804;9.386;2023-04-06T13:28:00;14.00;62.90
44223;DHT22;29895;48.804;9.386;2023-04-06T13:30:26;14.00;62.80
44223;DHT22;29895;48.804;9.386;2023-04-06T13:32:52;14.00;62.10
44223;DHT22;29895;48.804;9.386;2023-04-06T13:35:18;13.80;62.80
44223;DHT22;29895;48.804;9.386;2023-04-06T13:37:44;14.00;63.00
44223;DHT22;29895;48.804;9.386;2023-04-06T13:40:10;14.40;63.40
44223;DHT22;29895;48.804;9.386;2023-04-06T13:42:36;14.90;62.70
44223;DHT22;29895;48.804;9.386;2023-04-06T13:45:05;15.10;61.10
44223;DHT22;29895;48.804;9.386;2023-04-06T13:47:31;14.80;61.00
44223;DHT22;29895;48.804;9.386;2023-04-06T13:49:57;14.80;61.80
44223;DHT22;29895;48.804;9.386;2023-04-06T13:52:22;14.90;62.40
44223;DHT22;29895;48.804;9.386;2023-04-06T13:54:49;15.00;62.50
44223;DHT22;29895;48.804;9.386;2023-04-06T13:57:15;15.20;62.10
44223;DHT22;29895;48.804;9.386;2023-04-06T13:59:40;15.60;61.20
44223;DHT22;29895;48.804;9.386;2023-04-06T14:02:07;15.70;59.80
44223;DHT22;29895;48.804;9.386;2023-04-06T14:04:34;15.80;60.70
44223;DHT22;29895;48.804;9.386;2023-04-06T14:07:00;15.90;60.00
44223;DHT22;29895;48.804;9.386;2023-04-06T14:09:27;16.00;59.60
44223;DHT22;29895;48.804;9.386;2023-04-06T14:11:54;15.60;59.40
44223;DHT22;29895;48.804;9.386;2023-04-06T14:14:20;15.20;60.40
44223;DHT22;29895;48.804;9.386;2023-04-06T14:16:46;14.70;61.20
44223;DHT22;29895;48.804;9.386;2023-04-06T14:19:13;14.30;62.00
44223;DHT22;29895;48.804;9.386;2023-04-06T14:21:41;14.30;61.50
44223;DHT22;29895;48.804;9.386;2023-04-06T14:24:07;14.30;61.10
44223;DHT22;29895;48.804;9.386;2023-04-06T14:26:37;14.50;60.30
44223;DHT22;29895;48.804;9.386;2023-04-06T14:29:04;14.70;61.00
44223;DHT22;29895;48.804;9.386;2023-04-06T14:31:30;14.90;60.90
44223;DHT22;29895;48.804;9.386;2023-04-06T14:33:56;14.90;60.60
44223;DHT22;29895;48.804;9.386;2023-04-06T14:36:23;14.70;60.80
44223;DHT22;29895;48.804;9.386;2023-04-06T14:38:49;14.80;61.10
44223;DHT22;29895;48.804;9.386;2023-04-06T14:41:19;15.00;61.10
44223;DHT22;29895;48.804;9.386;2023-04-06T14:43:46;14.90;60.80
44223;DHT22;29895;48.804;9.386;2023-04-06T14:46:12;14.50;60.70
44223;DHT22;29895;48.804;9.386;2023-04-06T14:48:38;14.50;60.40
44223;DHT22;29895;48.804;9.386;2023-04-06T14:51:03;14.50;60.70
44223;DHT22;29895;48.804;9.386;2023-04-06T14:53:29;14.50;60.90
44223;DHT22;29895;48.804;9.386;2023-04-06T14:55:55;14.60;61.10
44223;DHT22;29895;48.804;9.386;2023-04-06T14:58:22;14.80;61.60
44223;DHT22;29895;48.804;9.386;2023-04-06T15:00:48;14.90;60.50
44223;DHT22;29895;48.804;9.386;2023-04-06T15:03:15;14.90;60.70
44223;DHT22;29895;48.804;9.386;2023-04-06T15:05:42;14.70;61.10
44223;DHT22;29895;48.804;9.386;2023-04-06T15:08:07;14.50;61.00
44223;DHT22;29895;48.804;9.386;2023-04-06T15:10:37;14.50;60.90
44223;DHT22;29895;48.804;9.386;2023-04-06T15:13:02;14.40;60.70
44223;DHT22;29895;48.804;9.386;2023-04-06T15:15:28;14.50;61.00
44223;DHT22;29895;48.804;9.386;2023-04-06T15:17:54;14.50;60.50
44223;DHT22;29895;48.804;9.386;2023-04-06T15:20:20;14.30;61.40
44223;DHT22;29895;48.804;9.386;2023-04-06T15:22:46;14.40;61.70
44223;DHT22;29895;48.804;9.386;2023-04-06T15:25:11;14.50;62.40
44223;DHT22;29895;48.804;9.386;2023-04-06T15:27:37;14.60;61.90
44223;DHT22;29895;48.804;9.386;2023-04-06T15:30:03;14.40;60.70
44223;DHT22;29895;48.804;9.386;2023-04-06T15:32:29;14.30;61.10
44223;DHT22;29895;48.804;9.386;2023-04-06T15:34:58;14.20;61.60
44223;DHT22;29895;48.804;9.386;2023-04-06T15:37:25;14.10;61.90
44223;DHT22;29895;48.804;9.386;2023-04-06T15:39:51;14.10;62.30
44223;DHT22;29895;48.804;9.386;2023-04-06T15:42:17;14.30;62.20
44223;DHT22;29895;48.804;9.386;2023-04-06T15:44:43;14.60;62.00